createdAt,value
2018-05-18T00:01:34.630Z,19.60
2018-05-18T00:04:02.015Z,18.13
2018-05-18T00:06:29.407Z,18.70
2018-05-18T00:08:56.791Z,19.30
2018-05-18T00:11:24.183Z,19.30
2018-05-18T00:13:51.579Z,20.77
2018-05-18T00:16:18.971Z,20.10
2018-05-18T00:18:46.355Z,20.17
2018-05-18T00:21:13.750Z,19.20
2018-05-18T00:23:41.138Z,20.80
2018-05-18T00:26:08.563Z,20.60
2018-05-18T00:28:35.925Z,19.67
2018-05-18T00:31:03.312Z,19.23
2018-05-18T00:33:30.708Z,20.13
2018-05-18T00:35:58.103Z,20.30
2018-05-18T00:38:25.498Z,19.33
2018-05-18T00:40:52.882Z,19.53
2018-05-18T00:43:20.275Z,20.00
2018-05-18T00:45:47.664Z,20.97
2018-05-18T00:48:15.059Z,19.43
2018-05-18T00:50:42.439Z,20.97
2018-05-18T00:53:09.827Z,20.30
2018-05-18T00:55:41.038Z,20.90
2018-05-18T00:58:08.471Z,21.00
2018-05-18T01:00:35.842Z,20.40
2018-05-18T01:03:03.238Z,21.17
2018-05-18T01:05:30.646Z,20.30
2018-05-18T01:07:58.038Z,20.13
2018-05-18T01:10:25.431Z,20.60
2018-05-18T01:12:52.823Z,21.53
2018-05-18T01:15:20.211Z,21.40
2018-05-18T01:17:47.605Z,20.80
2018-05-18T01:20:14.994Z,19.93
2018-05-18T01:22:42.382Z,22.03
2018-05-18T01:25:09.785Z,21.07
2018-05-18T01:27:37.176Z,20.93
2018-05-18T01:30:04.559Z,21.83
2018-05-18T01:32:31.947Z,22.57
2018-05-18T01:34:59.339Z,23.40
2018-05-18T01:37:26.726Z,24.80
2018-05-18T01:39:54.112Z,26.90
2018-05-18T01:42:21.495Z,30.70
2018-05-18T01:44:48.881Z,30.33
2018-05-18T01:47:16.270Z,32.73
2018-05-18T01:49:43.747Z,31.83
2018-05-18T01:52:11.118Z,34.53
2018-05-18T01:54:38.661Z,34.70
2018-05-18T01:57:06.043Z,36.07
2018-05-18T01:59:33.430Z,35.63
2018-05-18T02:02:00.823Z,34.60
2018-05-18T02:04:28.203Z,36.10
2018-05-18T02:06:55.586Z,36.30
2018-05-18T02:09:22.980Z,36.57
2018-05-18T02:11:50.367Z,38.33
2018-05-18T02:14:17.758Z,34.83
2018-05-18T02:16:45.146Z,34.63
2018-05-18T02:19:12.543Z,35.43
2018-05-18T02:21:39.939Z,33.40
2018-05-18T02:24:07.343Z,32.33
2018-05-18T02:26:34.731Z,31.63
2018-05-18T02:29:02.119Z,36.10
2018-05-18T02:31:29.507Z,33.13
2018-05-18T02:33:56.903Z,34.40
2018-05-18T02:36:24.307Z,33.93
2018-05-18T02:38:51.691Z,32.73
2018-05-18T02:41:19.091Z,33.80
2018-05-18T02:43:46.546Z,33.93
2018-05-18T02:46:13.943Z,33.50
2018-05-18T02:48:41.334Z,34.60
2018-05-18T02:51:08.727Z,34.00
2018-05-18T02:53:36.115Z,33.37
2018-05-18T02:56:03.507Z,33.27
2018-05-18T02:58:30.899Z,32.00
2018-05-18T03:00:58.283Z,35.67
2018-05-18T03:03:25.725Z,37.13
2018-05-18T03:05:53.182Z,45.87
2018-05-18T03:08:20.574Z,50.97
2018-05-18T03:10:47.973Z,55.80
2018-05-18T03:13:15.371Z,59.20
2018-05-18T03:15:42.759Z,63.20
2018-05-18T03:18:10.155Z,64.40
2018-05-18T03:20:37.543Z,64.87
2018-05-18T03:23:04.934Z,65.47
2018-05-18T03:25:32.331Z,64.77
2018-05-18T03:27:59.860Z,68.40
2018-05-18T03:30:27.169Z,67.37
2018-05-18T03:32:54.554Z,67.67
2018-05-18T03:35:21.951Z,67.50
2018-05-18T03:37:49.343Z,66.47
2018-05-18T03:40:16.739Z,70.10
2018-05-18T03:42:44.207Z,64.57
2018-05-18T03:45:11.594Z,64.13
2018-05-18T03:47:39.000Z,62.23
2018-05-18T03:50:06.374Z,64.43
2018-05-18T03:52:33.763Z,61.83
2018-05-18T03:55:01.155Z,62.50
2018-05-18T03:57:28.551Z,61.17
2018-05-18T03:59:55.963Z,60.10
2018-05-18T04:02:35.110Z,60.80
2018-05-18T04:05:14.127Z,61.37
2018-05-18T04:07:53.452Z,60.67
2018-05-18T04:10:20.811Z,58.87
2018-05-18T04:12:48.151Z,58.50
2018-05-18T04:15:15.551Z,61.47
2018-05-18T04:17:42.939Z,62.37
2018-05-18T04:20:10.388Z,64.03
2018-05-18T04:22:37.751Z,63.63
2018-05-18T04:25:06.245Z,60.50
2018-05-18T04:27:34.078Z,59.90
2018-05-18T04:30:01.549Z,57.37
2018-05-18T04:32:28.858Z,59.10
2018-05-18T04:34:56.258Z,57.37
2018-05-18T04:37:23.651Z,59.00
2018-05-18T04:39:51.037Z,60.13
2018-05-18T04:42:18.461Z,57.00
2018-05-18T04:44:45.851Z,59.10
2018-05-18T04:47:13.246Z,59.33
2018-05-18T04:49:40.680Z,53.50
2018-05-18T04:52:08.071Z,51.40
2018-05-18T04:54:35.586Z,50.70
2018-05-18T04:57:02.975Z,46.57
2018-05-18T04:59:30.368Z,46.90
2018-05-18T05:01:57.759Z,45.13
2018-05-18T05:04:25.147Z,44.77
2018-05-18T05:06:52.555Z,44.20
2018-05-18T05:09:20.127Z,47.37
2018-05-18T05:11:47.519Z,47.00
2018-05-18T05:14:15.039Z,51.43
2018-05-18T05:16:42.421Z,51.50
2018-05-18T05:19:09.981Z,52.93
2018-05-18T05:21:37.363Z,55.60
2018-05-18T05:24:04.751Z,54.30
2018-05-18T05:26:32.323Z,54.77
2018-05-18T05:28:59.728Z,54.00
2018-05-18T05:31:27.107Z,56.17
2018-05-18T05:33:54.508Z,56.63
2018-05-18T05:36:21.900Z,58.87
2018-05-18T05:38:49.298Z,56.07
2018-05-18T05:41:16.687Z,56.87
2018-05-18T05:43:44.091Z,60.50
2018-05-18T05:46:11.479Z,59.97
2018-05-18T05:48:38.930Z,58.80
2018-05-18T05:51:06.318Z,59.63
2018-05-18T05:53:33.842Z,57.23
2018-05-18T05:56:01.236Z,57.30
2018-05-18T05:58:28.665Z,56.37
2018-05-18T06:00:56.028Z,57.87
2018-05-18T06:03:23.402Z,59.57
2018-05-18T06:05:50.799Z,56.60
2018-05-18T06:08:18.186Z,57.43
2018-05-18T06:10:45.582Z,54.10
2018-05-18T06:13:12.971Z,52.03
2018-05-18T06:15:40.376Z,52.90
2018-05-18T06:18:07.806Z,52.40
2018-05-18T06:20:35.187Z,51.63
2018-05-18T06:23:02.582Z,49.70
2018-05-18T06:25:30.039Z,50.33
2018-05-18T06:27:57.504Z,47.47
2018-05-18T06:30:24.891Z,47.20
2018-05-18T06:32:52.283Z,49.70
2018-05-18T06:35:19.738Z,50.67
2018-05-18T06:37:47.071Z,50.50
2018-05-18T06:40:14.459Z,53.60
2018-05-18T06:42:41.847Z,51.70
2018-05-18T06:45:09.234Z,49.20
2018-05-18T06:47:36.623Z,49.87
2018-05-18T06:50:04.010Z,49.43
2018-05-18T06:52:31.492Z,51.23
2018-05-18T06:54:58.784Z,50.50
2018-05-18T06:57:26.179Z,49.47
2018-05-18T06:59:53.563Z,48.80
2018-05-18T07:02:21.008Z,51.90
2018-05-18T07:04:48.400Z,49.80
2018-05-18T07:07:15.786Z,51.33
2018-05-18T07:09:43.187Z,49.80
2018-05-18T07:12:10.572Z,48.97
2018-05-18T07:14:37.967Z,45.90
2018-05-18T07:17:05.354Z,44.57
2018-05-18T07:19:32.763Z,43.27
2018-05-18T07:22:00.172Z,44.60
2018-05-18T07:24:27.554Z,43.93
2018-05-18T07:26:54.968Z,44.90
2018-05-18T07:29:22.364Z,44.60
2018-05-18T07:31:49.746Z,43.60
2018-05-18T07:34:17.218Z,44.63
2018-05-18T07:36:44.604Z,41.37
2018-05-18T07:39:11.991Z,44.50
2018-05-18T07:41:39.395Z,45.50
2018-05-18T07:44:06.779Z,43.97
2018-05-18T07:46:34.170Z,42.90
2018-05-18T07:49:01.567Z,38.33
2018-05-18T07:51:28.965Z,38.23
2018-05-18T07:53:56.350Z,33.80
2018-05-18T07:56:23.747Z,32.57
2018-05-18T07:58:51.131Z,33.33
2018-05-18T08:01:18.527Z,31.30
2018-05-18T08:03:45.910Z,31.47
2018-05-18T08:06:13.299Z,31.73
2018-05-18T08:08:40.686Z,31.07
2018-05-18T08:11:08.086Z,31.80
2018-05-18T08:13:35.474Z,33.40
2018-05-18T08:16:02.927Z,32.27
2018-05-18T08:18:30.259Z,34.40
2018-05-18T08:20:57.638Z,33.87
2018-05-18T08:23:36.810Z,37.87
2018-05-18T08:26:04.201Z,38.67
2018-05-18T08:28:43.384Z,39.97
2018-05-18T08:31:10.766Z,33.63
2018-05-18T08:33:38.158Z,31.80
2018-05-18T08:36:05.547Z,29.80
2018-05-18T08:38:32.938Z,30.93
2018-05-18T08:41:00.341Z,35.50
2018-05-18T08:43:27.792Z,36.43
2018-05-18T08:45:55.190Z,38.80
2018-05-18T08:48:22.599Z,38.50
2018-05-18T08:50:49.995Z,37.17
2018-05-18T08:53:17.382Z,39.10
2018-05-18T08:55:44.783Z,38.17
2018-05-18T08:58:12.211Z,38.67
2018-05-18T09:00:39.623Z,37.30
2018-05-18T09:03:06.994Z,37.30
2018-05-18T09:05:34.383Z,38.17
2018-05-18T09:08:01.768Z,39.60
2018-05-18T09:10:29.163Z,38.37
2018-05-18T09:12:56.635Z,39.13
2018-05-18T09:15:24.024Z,37.87
2018-05-18T09:17:51.414Z,39.47
2018-05-18T09:20:18.803Z,39.37
2018-05-18T09:22:46.190Z,40.37
2018-05-18T09:25:13.583Z,40.43
2018-05-18T09:27:40.971Z,40.77
2018-05-18T09:30:08.362Z,40.50
2018-05-18T09:32:35.751Z,39.17
2018-05-18T09:35:03.139Z,37.87
2018-05-18T09:37:30.531Z,36.40
2018-05-18T09:39:57.910Z,38.87
2018-05-18T09:42:25.302Z,34.37
2018-05-18T09:44:52.686Z,36.63
2018-05-18T09:47:20.075Z,35.57
2018-05-18T09:49:47.463Z,37.33
2018-05-18T09:52:14.958Z,34.50
2018-05-18T09:54:42.406Z,34.87
2018-05-18T09:57:09.730Z,34.90
2018-05-18T09:59:37.125Z,34.70
2018-05-18T10:02:04.535Z,33.10
2018-05-18T10:04:31.945Z,33.37
2018-05-18T10:06:59.330Z,31.47
2018-05-18T10:09:26.723Z,30.97
2018-05-18T10:11:54.099Z,29.43
2018-05-18T10:14:21.491Z,29.70
2018-05-18T10:16:48.916Z,28.40
2018-05-18T10:19:16.295Z,28.30
2018-05-18T10:21:43.686Z,26.80
2018-05-18T10:24:11.078Z,25.03
2018-05-18T10:26:38.499Z,26.13
2018-05-18T10:29:05.903Z,25.50
2018-05-18T10:31:33.286Z,24.57
2018-05-18T10:34:00.680Z,25.53
2018-05-18T10:36:28.071Z,24.37
2018-05-18T10:38:55.507Z,25.43
2018-05-18T10:41:22.895Z,26.27
2018-05-18T10:43:50.298Z,25.40
2018-05-18T10:46:17.675Z,24.87
2018-05-18T10:48:45.058Z,24.47
2018-05-18T10:51:12.463Z,23.93
2018-05-18T10:53:39.847Z,24.00
2018-05-18T10:56:07.235Z,22.13
2018-05-18T10:58:34.624Z,24.20
2018-05-18T11:01:02.015Z,24.70
2018-05-18T11:03:29.399Z,25.07
2018-05-18T11:05:56.791Z,22.20
2018-05-18T11:08:24.176Z,22.23
2018-05-18T11:10:51.570Z,21.70
2018-05-18T11:13:19.778Z,20.37
2018-05-18T11:15:47.178Z,23.10
2018-05-18T11:18:14.571Z,22.43
2018-05-18T11:20:41.966Z,20.30
2018-05-18T11:23:09.419Z,20.13
2018-05-18T11:25:36.847Z,18.90
2018-05-18T11:28:04.244Z,20.13
2018-05-18T11:30:31.627Z,20.93
2018-05-18T11:32:59.019Z,19.37
2018-05-18T11:35:26.403Z,19.97
2018-05-18T11:37:53.887Z,21.87
2018-05-18T11:40:21.279Z,21.13
2018-05-18T11:42:48.666Z,23.33
2018-05-18T11:45:16.067Z,22.63
2018-05-18T11:47:43.467Z,21.20
2018-05-18T11:50:10.885Z,22.43
2018-05-18T11:52:38.262Z,19.97
2018-05-18T11:55:05.739Z,19.60
2018-05-18T11:57:33.131Z,19.27
2018-05-18T12:00:00.519Z,22.23
2018-05-18T12:02:27.975Z,20.80
2018-05-18T12:04:55.379Z,18.80
2018-05-18T12:07:22.758Z,18.70
2018-05-18T12:09:50.154Z,20.80
2018-05-18T12:12:17.638Z,20.90
2018-05-18T12:14:45.067Z,20.30
2018-05-18T12:17:12.462Z,18.97
2018-05-18T12:19:39.915Z,17.80
2018-05-18T12:22:07.294Z,17.90
2018-05-18T12:24:34.698Z,17.40
2018-05-18T12:27:02.120Z,18.17
2018-05-18T12:29:29.503Z,16.40
2018-05-18T12:31:56.899Z,17.47
2018-05-18T12:34:24.286Z,18.20
2018-05-18T12:36:51.695Z,17.00
2018-05-18T12:39:19.083Z,17.60
2018-05-18T12:41:46.474Z,17.10
2018-05-18T12:44:13.867Z,15.00
2018-05-18T12:46:41.260Z,17.27
2018-05-18T12:49:08.638Z,16.30
2018-05-18T12:51:36.035Z,16.97
2018-05-18T12:54:03.478Z,17.00
2018-05-18T12:56:30.819Z,17.20
2018-05-18T12:58:58.211Z,16.80
2018-05-18T13:01:25.616Z,15.20
2018-05-18T13:03:53.006Z,13.60
2018-05-18T13:06:20.402Z,14.30
2018-05-18T13:08:47.786Z,14.97
2018-05-18T13:11:15.197Z,14.13
2018-05-18T13:13:42.567Z,13.63
2018-05-18T13:16:09.955Z,14.87
2018-05-18T13:18:37.359Z,15.57
2018-05-18T13:21:04.742Z,15.40
2018-05-18T13:23:32.140Z,16.10
2018-05-18T13:25:59.527Z,14.57
2018-05-18T13:28:27.075Z,17.10
2018-05-18T13:30:54.458Z,16.20
2018-05-18T13:33:21.855Z,14.43
2018-05-18T13:35:49.231Z,16.67
2018-05-18T13:38:16.627Z,16.03
2018-05-18T13:40:44.020Z,16.63
2018-05-18T13:43:11.414Z,15.53
2018-05-18T13:45:38.866Z,14.80
2018-05-18T13:48:06.248Z,14.67
2018-05-18T13:50:33.670Z,15.13
2018-05-18T13:53:01.055Z,14.70
2018-05-18T13:55:28.458Z,14.70
2018-05-18T13:57:55.843Z,14.50
2018-05-18T14:00:23.283Z,15.17
2018-05-18T14:02:50.674Z,15.33
2018-05-18T14:05:18.079Z,15.07
2018-05-18T14:07:45.459Z,15.33
2018-05-18T14:10:12.852Z,16.17
2018-05-18T14:12:40.235Z,15.70
2018-05-18T14:15:07.627Z,15.23
2018-05-18T14:17:35.013Z,15.67
2018-05-18T14:20:02.450Z,15.80
2018-05-18T14:22:29.832Z,15.23
2018-05-18T14:24:57.223Z,13.80
2018-05-18T14:27:24.611Z,13.20
2018-05-18T14:29:52.011Z,13.87
2018-05-18T14:32:19.392Z,14.00
2018-05-18T14:34:46.855Z,15.00
2018-05-18T14:37:14.246Z,14.83
2018-05-18T14:39:41.630Z,14.93
2018-05-18T14:42:09.029Z,13.13
2018-05-18T14:44:36.419Z,13.20
2018-05-18T14:47:03.806Z,14.30
2018-05-18T14:49:31.200Z,13.47
2018-05-18T14:51:58.587Z,12.67
2018-05-18T14:54:25.971Z,13.17
2018-05-18T14:56:53.371Z,12.90
2018-05-18T14:59:20.759Z,14.30
2018-05-18T15:01:48.152Z,14.43
2018-05-18T15:04:15.668Z,14.77
2018-05-18T15:06:43.067Z,14.07
2018-05-18T15:09:10.454Z,13.50
2018-05-18T15:11:37.838Z,14.03
2018-05-18T15:14:05.230Z,13.20
2018-05-18T15:16:32.627Z,13.40
2018-05-18T15:19:00.027Z,13.70
2018-05-18T15:21:27.514Z,13.53
2018-05-18T15:23:54.912Z,14.57
2018-05-18T15:26:22.299Z,14.27
2018-05-18T15:28:49.754Z,14.67
2018-05-18T15:31:17.070Z,13.90
2018-05-18T15:33:44.467Z,13.17
2018-05-18T15:36:11.855Z,12.90
2018-05-18T15:38:39.247Z,12.90
2018-05-18T15:41:06.656Z,13.27
2018-05-18T15:43:34.094Z,14.23
2018-05-18T15:46:01.490Z,14.10
2018-05-18T15:48:28.876Z,14.20
2018-05-18T15:50:56.263Z,14.23
2018-05-18T15:53:23.668Z,13.30
2018-05-18T15:55:51.060Z,12.40
2018-05-18T15:58:19.494Z,12.50
2018-05-18T16:00:46.930Z,13.80
2018-05-18T16:03:14.606Z,13.53
2018-05-18T16:05:42.028Z,13.40
2018-05-18T16:08:09.442Z,13.60
2018-05-18T16:10:36.915Z,13.30
2018-05-18T16:13:04.350Z,12.97
2018-05-18T16:15:31.843Z,13.60
2018-05-18T16:17:59.294Z,13.80
2018-05-18T16:20:26.726Z,13.90
2018-05-18T16:22:54.166Z,13.07
2018-05-18T16:25:21.563Z,13.57
2018-05-18T16:27:49.119Z,13.87
2018-05-18T16:30:16.566Z,13.17
2018-05-18T16:32:44.031Z,13.20
2018-05-18T16:35:11.438Z,14.07
2018-05-18T16:37:38.818Z,12.90
2018-05-18T16:40:06.289Z,13.33
2018-05-18T16:42:33.999Z,13.27
2018-05-18T16:45:01.474Z,13.87
2018-05-18T16:47:29.037Z,13.67
2018-05-18T16:49:56.494Z,13.50
2018-05-18T16:52:23.943Z,14.17
2018-05-18T16:54:51.383Z,13.10
2018-05-18T16:57:18.774Z,13.20
2018-05-18T16:59:46.222Z,13.90
2018-05-18T17:02:13.690Z,14.10
2018-05-18T17:04:41.142Z,15.13
2018-05-18T17:07:08.567Z,13.70
2018-05-18T17:09:35.954Z,13.90
2018-05-18T17:12:03.363Z,14.40
2018-05-18T17:14:30.812Z,13.60
2018-05-18T17:16:58.286Z,12.80
2018-05-18T17:19:25.731Z,14.43
2018-05-18T17:21:53.177Z,13.07
2018-05-18T17:24:20.578Z,13.50
2018-05-18T17:26:48.044Z,12.90
2018-05-18T17:29:15.454Z,13.10
2018-05-18T17:31:42.890Z,13.73
2018-05-18T17:34:11.337Z,15.67
2018-05-18T17:36:38.926Z,15.40
2018-05-18T17:39:06.349Z,14.40
2018-05-18T17:41:33.726Z,14.60
2018-05-18T17:44:01.120Z,14.43
2018-05-18T17:46:28.526Z,15.87
2018-05-18T17:48:56.029Z,14.57
2018-05-18T17:51:23.338Z,14.20
2018-05-18T17:53:50.739Z,14.93
2018-05-18T17:56:18.119Z,14.80
2018-05-18T17:58:45.506Z,16.20
2018-05-18T18:01:12.891Z,17.17
2018-05-18T18:03:40.282Z,15.63
2018-05-18T18:06:07.683Z,18.90
2018-05-18T18:08:35.071Z,17.70
2018-05-18T18:11:02.466Z,18.13
2018-05-18T18:13:29.965Z,17.20
2018-05-18T18:15:57.346Z,16.90
2018-05-18T18:18:24.752Z,17.33
2018-05-18T18:20:52.146Z,15.70
2018-05-18T18:23:19.537Z,16.33
2018-05-18T18:25:46.926Z,15.60
2018-05-18T18:28:14.339Z,16.83
2018-05-18T18:30:41.730Z,15.80
2018-05-18T18:33:09.118Z,15.30
2018-05-18T18:35:36.511Z,14.83
2018-05-18T18:38:03.902Z,16.30
2018-05-18T18:40:31.306Z,16.93
2018-05-18T18:42:58.700Z,16.50
2018-05-18T18:45:26.092Z,15.93
2018-05-18T18:47:53.488Z,16.17
2018-05-18T18:50:20.867Z,16.07
2018-05-18T18:52:48.271Z,15.00
2018-05-18T18:55:15.647Z,16.47
2018-05-18T18:57:43.042Z,15.50
2018-05-18T19:00:10.426Z,15.60
2018-05-18T19:02:37.819Z,15.87
2018-05-18T19:05:05.210Z,15.67
2018-05-18T19:07:32.619Z,15.80
2018-05-18T19:10:00.003Z,16.13
2018-05-18T19:12:27.403Z,15.80
2018-05-18T19:14:54.874Z,15.20
2018-05-18T19:17:22.263Z,15.17
2018-05-18T19:19:49.663Z,14.50
2018-05-18T19:22:17.050Z,15.80
2018-05-18T19:24:44.443Z,15.43
2018-05-18T19:27:11.895Z,16.47
2018-05-18T19:29:39.304Z,15.53
2018-05-18T19:32:06.679Z,14.87
2018-05-18T19:34:34.071Z,14.40
2018-05-18T19:37:01.462Z,15.70
2018-05-18T19:39:28.869Z,13.90
2018-05-18T19:41:56.243Z,14.47
2018-05-18T19:44:23.634Z,14.53
2018-05-18T19:46:51.027Z,13.70
2018-05-18T19:49:18.477Z,14.70
2018-05-18T19:51:45.871Z,14.33
2018-05-18T19:54:13.285Z,14.77
2018-05-18T19:56:40.675Z,15.13
2018-05-18T19:59:08.067Z,14.00
2018-05-18T20:01:35.458Z,15.10
2018-05-18T20:04:02.842Z,16.50
2018-05-18T20:06:30.237Z,14.30
2018-05-18T20:08:57.631Z,14.67
2018-05-18T20:11:25.018Z,15.40
2018-05-18T20:13:52.403Z,14.83
2018-05-18T20:16:19.795Z,15.30
2018-05-18T20:18:47.179Z,14.63
2018-05-18T20:21:14.618Z,14.83
2018-05-18T20:23:41.982Z,14.80
2018-05-18T20:26:09.374Z,15.20
2018-05-18T20:28:36.768Z,14.10
2018-05-18T20:31:04.167Z,14.93
2018-05-18T20:33:31.555Z,14.80
2018-05-18T20:35:58.971Z,15.23
2018-05-18T20:38:26.355Z,14.83
2018-05-18T20:40:53.763Z,14.47
2018-05-18T20:43:21.146Z,15.57
2018-05-18T20:45:48.535Z,15.43
2018-05-18T20:48:16.022Z,15.47
2018-05-18T20:50:43.414Z,16.73
2018-05-18T20:53:10.807Z,15.30
2018-05-18T20:55:38.200Z,14.93
2018-05-18T20:58:05.736Z,16.37
2018-05-18T21:00:33.127Z,17.80
2018-05-18T21:03:00.523Z,17.40
2018-05-18T21:05:27.906Z,17.30
2018-05-18T21:07:55.302Z,16.93
2018-05-18T21:10:22.685Z,17.27
2018-05-18T21:12:50.077Z,17.17
2018-05-18T21:15:17.463Z,17.50
2018-05-18T21:17:44.907Z,16.27
2018-05-18T21:20:12.271Z,18.23
2018-05-18T21:22:39.669Z,17.20
2018-05-18T21:25:07.052Z,17.63
2018-05-18T21:27:34.450Z,18.00
2018-05-18T21:30:01.843Z,18.93
2018-05-18T21:32:29.231Z,16.73
2018-05-18T21:34:56.620Z,18.70
2018-05-18T21:37:24.038Z,18.70
2018-05-18T21:39:52.081Z,18.43
2018-05-18T21:42:20.134Z,20.20
2018-05-18T21:44:47.506Z,19.53
2018-05-18T21:47:14.895Z,19.70
2018-05-18T21:49:42.291Z,19.00
2018-05-18T21:52:09.670Z,19.07
2018-05-18T21:54:37.064Z,18.73
2018-05-18T21:57:04.461Z,19.20
2018-05-18T21:59:31.851Z,19.87
2018-05-18T22:01:59.239Z,18.37
2018-05-18T22:04:26.636Z,19.03
2018-05-18T22:06:54.022Z,18.90
2018-05-18T22:09:21.409Z,18.60
2018-05-18T22:11:48.799Z,18.50
2018-05-18T22:14:16.243Z,18.83
2018-05-18T22:16:43.579Z,18.53
2018-05-18T22:19:10.966Z,17.80
2018-05-18T22:21:38.358Z,19.53
2018-05-18T22:24:05.740Z,18.07
2018-05-18T22:26:33.130Z,19.57
2018-05-18T22:29:00.515Z,19.00
2018-05-18T22:31:27.907Z,17.63
2018-05-18T22:33:55.290Z,18.20
2018-05-18T22:36:22.683Z,17.60
2018-05-18T22:38:50.071Z,17.70
2018-05-18T22:41:17.466Z,17.57
2018-05-18T22:43:44.854Z,18.03
2018-05-18T22:46:12.243Z,17.30
2018-05-18T22:48:39.635Z,18.27
2018-05-18T22:51:07.023Z,18.13
2018-05-18T22:53:34.411Z,18.70
2018-05-18T22:56:02.534Z,17.60
2018-05-18T22:58:29.932Z,17.73
2018-05-18T23:00:57.332Z,17.97
2018-05-18T23:03:24.828Z,18.67
2018-05-18T23:05:52.214Z,18.57
2018-05-18T23:08:19.607Z,18.70
2018-05-18T23:10:47.000Z,17.80
2018-05-18T23:13:14.394Z,19.10
2018-05-18T23:15:41.779Z,17.77
2018-05-18T23:18:09.174Z,17.63
2018-05-18T23:20:36.570Z,17.60
2018-05-18T23:23:03.963Z,17.07
2018-05-18T23:25:31.358Z,17.40
2018-05-18T23:27:58.750Z,17.97
2018-05-18T23:30:26.142Z,17.83
2018-05-18T23:32:53.539Z,18.40
2018-05-18T23:35:20.927Z,17.00
2018-05-18T23:37:48.314Z,17.77
2018-05-18T23:40:15.706Z,17.40
2018-05-18T23:42:43.098Z,18.10
2018-05-18T23:45:11.410Z,18.20
2018-05-18T23:47:38.796Z,18.60
2018-05-18T23:50:06.238Z,19.27
2018-05-18T23:52:33.623Z,18.80
2018-05-18T23:55:01.022Z,18.27
2018-05-18T23:57:28.403Z,19.07
2018-05-18T23:59:56.019Z,18.97
